sensor_id;sensor_type;location;lat;lon;timestamp;P1;durP1;ratioP1;P2;durP2;ratioP2
72559;SDS011;62987;52.382;9.752;2023-02-15T00:00:07;20.70;;;9.23;;
72559;SDS011;62987;52.382;9.752;2023-02-15T00:02:37;20.15;;;8.40;;
72559;SDS011;62987;52.382;9.752;2023-02-15T00:05:07;22.00;;;8.27;;
72559;SDS011;62987;52.382;9.752;2023-02-15T00:07:35;17.38;;;7.25;;
72559;SDS011;62987;52.382;9.752;2023-02-15T00:10:04;19.35;;;9.05;;
72559;SDS011;62987;52.382;9.752;2023-02-15T00:12:33;19.83;;;8.10;;
72559;SDS011;62987;52.382;9.752;2023-02-15T00:15:01;18.70;;;8.32;;
72559;SDS011;62987;52.382;9.752;2023-02-15T00:17:29;17.08;;;8.20;;
72559;SDS011;62987;52.382;9.752;2023-02-15T00:19:57;18.33;;;7.55;;
72559;SDS011;62987;52.382;9.752;2023-02-15T00:22:26;19.88;;;9.00;;
72559;SDS011;62987;52.382;9.752;2023-02-15T00:24:55;19.75;;;7.63;;
72559;SDS011;62987;52.382;9.752;2023-02-15T00:27:23;17.77;;;8.18;;
72559;SDS011;62987;52.382;9.752;2023-02-15T00:29:51;17.95;;;8.52;;
72559;SDS011;62987;52.382;9.752;2023-02-15T00:32:19;16.08;;;7.05;;
72559;SDS011;62987;52.382;9.752;2023-02-15T00:34:47;13.68;;;7.40;;
72559;SDS011;62987;52.382;9.752;2023-02-15T00:37:15;15.07;;;7.32;;
72559;SDS011;62987;52.382;9.752;2023-02-15T00:39:47;14.70;;;6.28;;
72559;SDS011;62987;52.382;9.752;2023-02-15T00:42:16;16.58;;;7.07;;
72559;SDS011;62987;52.382;9.752;2023-02-15T00:44:44;19.20;;;8.13;;
72559;SDS011;62987;52.382;9.752;2023-02-15T00:47:12;12.38;;;6.03;;
72559;SDS011;62987;52.382;9.752;2023-02-15T00:49:40;18.63;;;6.70;;
72559;SDS011;62987;52.382;9.752;2023-02-15T00:52:08;16.10;;;6.93;;
72559;SDS011;62987;52.382;9.752;2023-02-15T00:54:36;12.48;;;5.93;;
72559;SDS011;62987;52.382;9.752;2023-02-15T00:57:06;15.48;;;6.70;;
72559;SDS011;62987;52.382;9.752;2023-02-15T00:59:34;16.15;;;5.93;;
72559;SDS011;62987;52.382;9.752;2023-02-15T01:02:02;13.52;;;5.78;;
72559;SDS011;62987;52.382;9.752;2023-02-15T01:04:30;14.07;;;5.80;;
72559;SDS011;62987;52.382;9.752;2023-02-15T01:06:58;15.27;;;6.60;;
72559;SDS011;62987;52.382;9.752;2023-02-15T01:09:26;15.80;;;6.15;;
72559;SDS011;62987;52.382;9.752;2023-02-15T01:11:55;14.30;;;6.35;;
72559;SDS011;62987;52.382;9.752;2023-02-15T01:14:26;18.60;;;6.53;;
72559;SDS011;62987;52.382;9.752;2023-02-15T01:16:54;13.10;;;5.93;;
72559;SDS011;62987;52.382;9.752;2023-02-15T01:19:22;13.93;;;5.63;;
72559;SDS011;62987;52.382;9.752;2023-02-15T01:21:50;14.50;;;5.93;;
72559;SDS011;62987;52.382;9.752;2023-02-15T01:24:18;14.50;;;6.22;;
72559;SDS011;62987;52.382;9.752;2023-02-15T01:26:46;15.00;;;6.90;;
72559;SDS011;62987;52.382;9.752;2023-02-15T01:29:14;13.32;;;5.47;;
72559;SDS011;62987;52.382;9.752;2023-02-15T01:31:43;14.10;;;5.75;;
72559;SDS011;62987;52.382;9.752;2023-02-15T01:34:13;17.00;;;6.10;;
72559;SDS011;62987;52.382;9.752;2023-02-15T01:36:41;17.10;;;6.85;;
72559;SDS011;62987;52.382;9.752;2023-02-15T01:39:09;16.38;;;6.50;;
72559;SDS011;62987;52.382;9.752;2023-02-15T01:41:37;16.13;;;6.45;;
72559;SDS011;62987;52.382;9.752;2023-02-15T01:47:04;16.55;;;7.20;;
72559;SDS011;62987;52.382;9.752;2023-02-15T01:49:32;14.48;;;6.30;;
72559;SDS011;62987;52.382;9.752;2023-02-15T01:52:00;16.05;;;6.55;;
72559;SDS011;62987;52.382;9.752;2023-02-15T01:54:29;14.82;;;5.75;;
72559;SDS011;62987;52.382;9.752;2023-02-15T01:57:03;15.75;;;5.75;;
72559;SDS011;62987;52.382;9.752;2023-02-15T01:59:36;15.40;;;6.75;;
72559;SDS011;62987;52.382;9.752;2023-02-15T02:02:08;13.98;;;6.78;;
72559;SDS011;62987;52.382;9.752;2023-02-15T02:04:40;13.55;;;6.13;;
72559;SDS011;62987;52.382;9.752;2023-02-15T02:07:11;13.73;;;5.40;;
72559;SDS011;62987;52.382;9.752;2023-02-15T02:09:42;12.50;;;6.03;;
72559;SDS011;62987;52.382;9.752;2023-02-15T02:12:11;13.60;;;5.63;;
72559;SDS011;62987;52.382;9.752;2023-02-15T02:14:40;12.00;;;5.97;;
72559;SDS011;62987;52.382;9.752;2023-02-15T02:17:11;14.77;;;6.15;;
72559;SDS011;62987;52.382;9.752;2023-02-15T02:19:47;17.45;;;5.85;;
72559;SDS011;62987;52.382;9.752;2023-02-15T02:25:52;17.27;;;6.15;;
72559;SDS011;62987;52.382;9.752;2023-02-15T02:32:03;15.98;;;5.57;;
72559;SDS011;62987;52.382;9.752;2023-02-15T02:34:54;13.30;;;5.88;;
72559;SDS011;62987;52.382;9.752;2023-02-15T02:37:30;14.00;;;5.93;;
72559;SDS011;62987;52.382;9.752;2023-02-15T02:40:11;14.32;;;5.40;;
72559;SDS011;62987;52.382;9.752;2023-02-15T02:42:45;13.95;;;6.20;;
72559;SDS011;62987;52.382;9.752;2023-02-15T02:45:19;17.45;;;6.07;;
72559;SDS011;62987;52.382;9.752;2023-02-15T02:50:24;15.70;;;5.38;;
72559;SDS011;62987;52.382;9.752;2023-02-15T02:52:55;18.00;;;7.03;;
72559;SDS011;62987;52.382;9.752;2023-02-15T02:55:25;15.25;;;5.75;;
72559;SDS011;62987;52.382;9.752;2023-02-15T02:57:57;12.15;;;5.28;;
72559;SDS011;62987;52.382;9.752;2023-02-15T03:00:32;15.80;;;6.47;;
72559;SDS011;62987;52.382;9.752;2023-02-15T03:03:05;16.30;;;6.20;;
72559;SDS011;62987;52.382;9.752;2023-02-15T03:05:39;16.90;;;6.60;;
72559;SDS011;62987;52.382;9.752;2023-02-15T03:08:13;15.52;;;6.22;;
72559;SDS011;62987;52.382;9.752;2023-02-15T03:10:49;14.18;;;6.20;;
72559;SDS011;62987;52.382;9.752;2023-02-15T03:13:21;16.73;;;6.20;;
72559;SDS011;62987;52.382;9.752;2023-02-15T03:15:50;18.20;;;6.80;;
72559;SDS011;62987;52.382;9.752;2023-02-15T03:18:38;18.98;;;7.45;;
72559;SDS011;62987;52.382;9.752;2023-02-15T03:21:11;16.40;;;7.38;;
72559;SDS011;62987;52.382;9.752;2023-02-15T03:23:50;16.02;;;7.30;;
72559;SDS011;62987;52.382;9.752;2023-02-15T03:26:21;15.68;;;6.80;;
72559;SDS011;62987;52.382;9.752;2023-02-15T03:28:53;14.68;;;6.70;;
72559;SDS011;62987;52.382;9.752;2023-02-15T03:31:28;19.15;;;7.10;;
72559;SDS011;62987;52.382;9.752;2023-02-15T03:34:00;15.82;;;6.72;;
72559;SDS011;62987;52.382;9.752;2023-02-15T03:36:33;13.93;;;6.22;;
72559;SDS011;62987;52.382;9.752;2023-02-15T03:39:09;15.80;;;6.30;;
72559;SDS011;62987;52.382;9.752;2023-02-15T03:41:45;15.90;;;6.55;;
72559;SDS011;62987;52.382;9.752;2023-02-15T03:44:23;13.75;;;6.53;;
72559;SDS011;62987;52.382;9.752;2023-02-15T03:46:57;15.05;;;6.00;;
72559;SDS011;62987;52.382;9.752;2023-02-15T03:49:31;15.82;;;6.80;;
72559;SDS011;62987;52.382;9.752;2023-02-15T03:52:08;14.60;;;5.80;;
72559;SDS011;62987;52.382;9.752;2023-02-15T03:54:38;15.55;;;6.47;;
72559;SDS011;62987;52.382;9.752;2023-02-15T03:57:14;16.17;;;6.90;;
72559;SDS011;62987;52.382;9.752;2023-02-15T04:00:03;14.88;;;6.35;;
72559;SDS011;62987;52.382;9.752;2023-02-15T04:03:01;15.77;;;6.63;;
72559;SDS011;62987;52.382;9.752;2023-02-15T04:05:37;12.75;;;5.60;;
72559;SDS011;62987;52.382;9.752;2023-02-15T04:08:07;17.52;;;6.53;;
72559;SDS011;62987;52.382;9.752;2023-02-15T04:10:36;15.15;;;5.72;;
72559;SDS011;62987;52.382;9.752;2023-02-15T04:13:18;19.35;;;8.25;;
72559;SDS011;62987;52.382;9.752;2023-02-15T04:15:47;15.20;;;7.32;;
72559;SDS011;62987;52.382;9.752;2023-02-15T04:18:36;16.67;;;5.88;;
72559;SDS011;62987;52.382;9.752;2023-02-15T04:24:23;15.68;;;6.32;;
72559;SDS011;62987;52.382;9.752;2023-02-15T04:27:08;14.75;;;5.82;;
72559;SDS011;62987;52.382;9.752;2023-02-15T04:29:36;14.05;;;6.03;;
72559;SDS011;62987;52.382;9.752;2023-02-15T04:32:04;13.45;;;5.32;;
72559;SDS011;62987;52.382;9.752;2023-02-15T04:34:33;16.85;;;7.10;;
72559;SDS011;62987;52.382;9.752;2023-02-15T04:37:01;17.60;;;6.03;;
72559;SDS011;62987;52.382;9.752;2023-02-15T04:39:30;20.67;;;6.82;;
72559;SDS011;62987;52.382;9.752;2023-02-15T04:41:58;15.80;;;6.47;;
72559;SDS011;62987;52.382;9.752;2023-02-15T04:44:26;16.73;;;6.60;;
72559;SDS011;62987;52.382;9.752;2023-02-15T04:46:54;15.98;;;6.35;;
72559;SDS011;62987;52.382;9.752;2023-02-15T04:49:25;15.20;;;6.97;;
72559;SDS011;62987;52.382;9.752;2023-02-15T04:51:53;19.40;;;7.22;;
72559;SDS011;62987;52.382;9.752;2023-02-15T04:56:50;14.07;;;6.72;;
72559;SDS011;62987;52.382;9.752;2023-02-15T04:59:18;18.65;;;6.45;;
72559;SDS011;62987;52.382;9.752;2023-02-15T05:01:46;16.02;;;6.90;;
72559;SDS011;62987;52.382;9.752;2023-02-15T05:04:13;16.20;;;7.22;;
72559;SDS011;62987;52.382;9.752;2023-02-15T05:06:41;12.40;;;5.53;;
72559;SDS011;62987;52.382;9.752;2023-02-15T05:09:10;15.48;;;6.88;;
72559;SDS011;62987;52.382;9.752;2023-02-15T05:11:38;18.30;;;7.78;;
72559;SDS011;62987;52.382;9.752;2023-02-15T05:14:07;18.95;;;7.50;;
72559;SDS011;62987;52.382;9.752;2023-02-15T05:16:35;20.52;;;6.95;;
72559;SDS011;62987;52.382;9.752;2023-02-15T05:19:03;18.02;;;6.57;;
72559;SDS011;62987;52.382;9.752;2023-02-15T05:21:31;19.15;;;7.10;;
72559;SDS011;62987;52.382;9.752;2023-02-15T05:24:00;21.33;;;7.85;;
72559;SDS011;62987;52.382;9.752;2023-02-15T05:26:48;23.15;;;8.32;;
72559;SDS011;62987;52.382;9.752;2023-02-15T05:29:34;15.75;;;7.07;;
72559;SDS011;62987;52.382;9.752;2023-02-15T05:32:02;18.83;;;7.13;;
72559;SDS011;62987;52.382;9.752;2023-02-15T05:34:31;17.05;;;6.90;;
72559;SDS011;62987;52.382;9.752;2023-02-15T05:36:59;17.58;;;7.25;;
72559;SDS011;62987;52.382;9.752;2023-02-15T05:39:27;17.27;;;7.32;;
72559;SDS011;62987;52.382;9.752;2023-02-15T05:41:57;17.90;;;7.22;;
72559;SDS011;62987;52.382;9.752;2023-02-15T05:44:26;20.48;;;7.53;;
72559;SDS011;62987;52.382;9.752;2023-02-15T05:46:55;19.70;;;8.52;;
72559;SDS011;62987;52.382;9.752;2023-02-15T05:49:23;16.88;;;7.75;;
72559;SDS011;62987;52.382;9.752;2023-02-15T05:51:51;15.65;;;6.50;;
72559;SDS011;62987;52.382;9.752;2023-02-15T05:54:19;19.45;;;7.97;;
72559;SDS011;62987;52.382;9.752;2023-02-15T05:56:47;18.70;;;7.63;;
72559;SDS011;62987;52.382;9.752;2023-02-15T06:01:42;19.70;;;6.95;;
72559;SDS011;62987;52.382;9.752;2023-02-15T06:04:12;19.33;;;7.40;;
72559;SDS011;62987;52.382;9.752;2023-02-15T06:06:40;18.30;;;7.35;;
72559;SDS011;62987;52.382;9.752;2023-02-15T06:11:35;21.13;;;7.47;;
72559;SDS011;62987;52.382;9.752;2023-02-15T06:14:03;20.10;;;8.73;;
72559;SDS011;62987;52.382;9.752;2023-02-15T06:16:31;20.73;;;7.50;;
72559;SDS011;62987;52.382;9.752;2023-02-15T06:18:59;17.73;;;7.90;;
72559;SDS011;62987;52.382;9.752;2023-02-15T06:21:29;24.75;;;7.80;;
72559;SDS011;62987;52.382;9.752;2023-02-15T06:23:58;20.95;;;8.15;;
72559;SDS011;62987;52.382;9.752;2023-02-15T06:26:26;19.02;;;8.10;;
72559;SDS011;62987;52.382;9.752;2023-02-15T06:31:21;24.23;;;8.30;;
72559;SDS011;62987;52.382;9.752;2023-02-15T06:33:49;18.05;;;6.68;;
72559;SDS011;62987;52.382;9.752;2023-02-15T06:36:17;15.80;;;6.70;;
72559;SDS011;62987;52.382;9.752;2023-02-15T06:38:46;23.15;;;7.97;;
72559;SDS011;62987;52.382;9.752;2023-02-15T06:41:14;15.73;;;7.30;;
72559;SDS011;62987;52.382;9.752;2023-02-15T06:43:42;24.20;;;7.35;;
72559;SDS011;62987;52.382;9.752;2023-02-15T06:46:10;18.67;;;6.75;;
72559;SDS011;62987;52.382;9.752;2023-02-15T06:48:38;16.67;;;6.85;;
72559;SDS011;62987;52.382;9.752;2023-02-15T06:51:06;19.73;;;8.48;;
72559;SDS011;62987;52.382;9.752;2023-02-15T06:53:34;19.08;;;5.80;;
72559;SDS011;62987;52.382;9.752;2023-02-15T06:56:03;17.55;;;7.50;;
72559;SDS011;62987;52.382;9.752;2023-02-15T06:58:35;15.05;;;6.57;;
72559;SDS011;62987;52.382;9.752;2023-02-15T07:01:03;17.98;;;7.70;;
72559;SDS011;62987;52.382;9.752;2023-02-15T07:03:32;15.73;;;7.28;;
72559;SDS011;62987;52.382;9.752;2023-02-15T07:06:01;21.70;;;7.75;;
72559;SDS011;62987;52.382;9.752;2023-02-15T07:08:32;14.45;;;6.22;;
72559;SDS011;62987;52.382;9.752;2023-02-15T07:11:00;18.08;;;6.80;;
72559;SDS011;62987;52.382;9.752;2023-02-15T07:13:44;16.38;;;8.27;;
72559;SDS011;62987;52.382;9.752;2023-02-15T07:16:12;19.75;;;9.25;;
72559;SDS011;62987;52.382;9.752;2023-02-15T07:18:40;15.88;;;6.30;;
72559;SDS011;62987;52.382;9.752;2023-02-15T07:21:08;16.33;;;7.07;;
72559;SDS011;62987;52.382;9.752;2023-02-15T07:23:37;22.23;;;7.85;;
72559;SDS011;62987;52.382;9.752;2023-02-15T07:26:06;17.45;;;6.78;;
72559;SDS011;62987;52.382;9.752;2023-02-15T07:28:34;15.95;;;6.85;;
72559;SDS011;62987;52.382;9.752;2023-02-15T07:31:04;19.13;;;7.72;;
72559;SDS011;62987;52.382;9.752;2023-02-15T07:33:33;19.45;;;7.35;;
72559;SDS011;62987;52.382;9.752;2023-02-15T07:36:02;14.57;;;6.18;;
72559;SDS011;62987;52.382;9.752;2023-02-15T07:38:32;18.70;;;6.55;;
72559;SDS011;62987;52.382;9.752;2023-02-15T07:41:03;20.02;;;7.03;;
72559;SDS011;62987;52.382;9.752;2023-02-15T07:43:33;21.13;;;8.02;;
72559;SDS011;62987;52.382;9.752;2023-02-15T07:46:04;18.83;;;6.03;;
72559;SDS011;62987;52.382;9.752;2023-02-15T07:48:34;21.13;;;9.23;;
72559;SDS011;62987;52.382;9.752;2023-02-15T07:51:03;17.67;;;6.70;;
72559;SDS011;62987;52.382;9.752;2023-02-15T07:53:32;12.02;;;5.78;;
72559;SDS011;62987;52.382;9.752;2023-02-15T07:56:01;16.02;;;7.05;;
72559;SDS011;62987;52.382;9.752;2023-02-15T07:58:30;18.65;;;8.02;;
72559;SDS011;62987;52.382;9.752;2023-02-15T08:01:13;20.25;;;8.07;;
72559;SDS011;62987;52.382;9.752;2023-02-15T08:03:42;16.42;;;6.40;;
72559;SDS011;62987;52.382;9.752;2023-02-15T08:06:10;15.07;;;7.15;;
72559;SDS011;62987;52.382;9.752;2023-02-15T08:08:39;16.42;;;6.72;;
72559;SDS011;62987;52.382;9.752;2023-02-15T08:11:13;17.10;;;6.85;;
72559;SDS011;62987;52.382;9.752;2023-02-15T08:14:00;13.48;;;5.82;;
72559;SDS011;62987;52.382;9.752;2023-02-15T08:16:33;14.15;;;6.18;;
72559;SDS011;62987;52.382;9.752;2023-02-15T08:19:03;16.63;;;7.18;;
72559;SDS011;62987;52.382;9.752;2023-02-15T08:21:33;20.73;;;8.02;;
72559;SDS011;62987;52.382;9.752;2023-02-15T08:24:06;15.23;;;6.40;;
72559;SDS011;62987;52.382;9.752;2023-02-15T08:26:35;18.23;;;7.50;;
72559;SDS011;62987;52.382;9.752;2023-02-15T08:29:07;14.02;;;5.88;;
72559;SDS011;62987;52.382;9.752;2023-02-15T08:31:37;15.50;;;5.72;;
72559;SDS011;62987;52.382;9.752;2023-02-15T08:34:07;11.80;;;6.07;;
72559;SDS011;62987;52.382;9.752;2023-02-15T08:36:37;13.32;;;5.97;;
72559;SDS011;62987;52.382;9.752;2023-02-15T08:39:05;14.40;;;5.35;;
72559;SDS011;62987;52.382;9.752;2023-02-15T08:41:35;12.98;;;5.47;;
72559;SDS011;62987;52.382;9.752;2023-02-15T08:44:08;12.98;;;5.43;;
72559;SDS011;62987;52.382;9.752;2023-02-15T08:46:39;16.23;;;6.20;;
72559;SDS011;62987;52.382;9.752;2023-02-15T08:49:08;14.38;;;6.80;;
72559;SDS011;62987;52.382;9.752;2023-02-15T08:51:37;12.70;;;6.43;;
72559;SDS011;62987;52.382;9.752;2023-02-15T08:54:06;13.15;;;6.10;;
72559;SDS011;62987;52.382;9.752;2023-02-15T08:56:39;13.45;;;5.72;;
72559;SDS011;62987;52.382;9.752;2023-02-15T08:59:11;14.40;;;6.32;;
72559;SDS011;62987;52.382;9.752;2023-02-15T09:01:42;13.00;;;5.65;;
72559;SDS011;62987;52.382;9.752;2023-02-15T09:04:10;11.20;;;6.60;;
72559;SDS011;62987;52.382;9.752;2023-02-15T09:06:41;13.18;;;5.50;;
72559;SDS011;62987;52.382;9.752;2023-02-15T09:09:16;16.00;;;7.10;;
72559;SDS011;62987;52.382;9.752;2023-02-15T09:11:46;14.70;;;5.88;;
72559;SDS011;62987;52.382;9.752;2023-02-15T09:14:23;13.90;;;5.32;;
72559;SDS011;62987;52.382;9.752;2023-02-15T09:16:54;10.95;;;4.78;;
72559;SDS011;62987;52.382;9.752;2023-02-15T09:19:22;13.52;;;5.35;;
72559;SDS011;62987;52.382;9.752;2023-02-15T09:21:52;9.27;;;5.00;;
72559;SDS011;62987;52.382;9.752;2023-02-15T09:24:20;13.68;;;5.40;;
72559;SDS011;62987;52.382;9.752;2023-02-15T09:26:48;10.93;;;5.45;;
72559;SDS011;62987;52.382;9.752;2023-02-15T09:29:16;11.93;;;5.00;;
72559;SDS011;62987;52.382;9.752;2023-02-15T09:31:46;11.90;;;5.68;;
72559;SDS011;62987;52.382;9.752;2023-02-15T09:34:19;13.75;;;4.90;;
72559;SDS011;62987;52.382;9.752;2023-02-15T09:36:49;13.13;;;5.18;;
72559;SDS011;62987;52.382;9.752;2023-02-15T09:39:18;11.23;;;4.90;;
72559;SDS011;62987;52.382;9.752;2023-02-15T09:42:02;14.15;;;5.65;;
72559;SDS011;62987;52.382;9.752;2023-02-15T09:47:41;8.63;;;4.28;;
72559;SDS011;62987;52.382;9.752;2023-02-15T09:50:28;11.38;;;5.07;;
72559;SDS011;62987;52.382;9.752;2023-02-15T09:53:13;12.07;;;4.72;;
72559;SDS011;62987;52.382;9.752;2023-02-15T09:55:57;10.70;;;5.13;;
72559;SDS011;62987;52.382;9.752;2023-02-15T09:58:37;10.90;;;4.55;;
72559;SDS011;62987;52.382;9.752;2023-02-15T10:01:15;11.27;;;5.28;;
72559;SDS011;62987;52.382;9.752;2023-02-15T10:03:54;13.90;;;5.65;;
72559;SDS011;62987;52.382;9.752;2023-02-15T10:06:38;13.75;;;5.65;;
72559;SDS011;62987;52.382;9.752;2023-02-15T10:09:27;11.63;;;5.22;;
72559;SDS011;62987;52.382;9.752;2023-02-15T10:12:11;9.40;;;5.10;;
72559;SDS011;62987;52.382;9.752;2023-02-15T10:14:56;12.35;;;4.90;;
72559;SDS011;62987;52.382;9.752;2023-02-15T10:17:42;12.27;;;5.15;;
72559;SDS011;62987;52.382;9.752;2023-02-15T10:20:22;10.70;;;5.22;;
72559;SDS011;62987;52.382;9.752;2023-02-15T10:23:01;12.65;;;6.20;;
72559;SDS011;62987;52.382;9.752;2023-02-15T10:25:42;15.38;;;6.35;;
72559;SDS011;62987;52.382;9.752;2023-02-15T10:28:15;9.82;;;4.90;;
72559;SDS011;62987;52.382;9.752;2023-02-15T10:30:46;12.00;;;5.28;;
72559;SDS011;62987;52.382;9.752;2023-02-15T10:33:24;9.63;;;4.60;;
72559;SDS011;62987;52.382;9.752;2023-02-15T10:36:05;11.77;;;5.35;;
72559;SDS011;62987;52.382;9.752;2023-02-15T10:38:46;11.65;;;5.82;;
72559;SDS011;62987;52.382;9.752;2023-02-15T10:41:22;12.93;;;6.00;;
72559;SDS011;62987;52.382;9.752;2023-02-15T10:44:02;11.38;;;5.57;;
72559;SDS011;62987;52.382;9.752;2023-02-15T10:46:45;12.63;;;5.40;;
72559;SDS011;62987;52.382;9.752;2023-02-15T10:49:42;11.43;;;5.55;;
72559;SDS011;62987;52.382;9.752;2023-02-15T10:52:25;11.93;;;5.90;;
72559;SDS011;62987;52.382;9.752;2023-02-15T10:55:07;10.80;;;6.05;;
72559;SDS011;62987;52.382;9.752;2023-02-15T11:00:18;9.98;;;5.13;;
72559;SDS011;62987;52.382;9.752;2023-02-15T11:05:29;9.48;;;4.78;;
72559;SDS011;62987;52.382;9.752;2023-02-15T11:08:07;11.45;;;5.25;;
72559;SDS011;62987;52.382;9.752;2023-02-15T11:10:41;11.65;;;5.40;;
72559;SDS011;62987;52.382;9.752;2023-02-15T11:13:15;9.70;;;5.40;;
72559;SDS011;62987;52.382;9.752;2023-02-15T11:15:46;11.63;;;5.15;;
72559;SDS011;62987;52.382;9.752;2023-02-15T11:18:21;11.35;;;5.18;;
72559;SDS011;62987;52.382;9.752;2023-02-15T11:20:54;9.32;;;5.28;;
72559;SDS011;62987;52.382;9.752;2023-02-15T11:23:26;10.43;;;6.10;;
72559;SDS011;62987;52.382;9.752;2023-02-15T11:25:58;10.75;;;5.18;;
72559;SDS011;62987;52.382;9.752;2023-02-15T11:28:30;12.82;;;5.38;;
72559;SDS011;62987;52.382;9.752;2023-02-15T11:31:02;9.63;;;5.13;;
72559;SDS011;62987;52.382;9.752;2023-02-15T11:33:42;10.73;;;5.10;;
72559;SDS011;62987;52.382;9.752;2023-02-15T11:36:15;9.57;;;5.15;;
72559;SDS011;62987;52.382;9.752;2023-02-15T11:38:47;9.70;;;5.10;;
72559;SDS011;62987;52.382;9.752;2023-02-15T11:41:21;13.43;;;6.07;;
72559;SDS011;62987;52.382;9.752;2023-02-15T11:43:55;11.18;;;5.57;;
72559;SDS011;62987;52.382;9.752;2023-02-15T11:46:27;10.18;;;5.22;;
72559;SDS011;62987;52.382;9.752;2023-02-15T11:48:55;12.52;;;5.30;;
72559;SDS011;62987;52.382;9.752;2023-02-15T11:51:24;10.52;;;5.50;;
72559;SDS011;62987;52.382;9.752;2023-02-15T11:53:55;11.52;;;6.53;;
72559;SDS011;62987;52.382;9.752;2023-02-15T11:56:25;11.60;;;5.70;;
72559;SDS011;62987;52.382;9.752;2023-02-15T11:58:54;10.70;;;5.90;;
72559;SDS011;62987;52.382;9.752;2023-02-15T12:01:28;10.30;;;5.25;;
72559;SDS011;62987;52.382;9.752;2023-02-15T12:03:59;13.13;;;5.90;;
72559;SDS011;62987;52.382;9.752;2023-02-15T12:06:32;10.23;;;5.45;;
72559;SDS011;62987;52.382;9.752;2023-02-15T12:09:03;11.15;;;5.57;;
72559;SDS011;62987;52.382;9.752;2023-02-15T12:11:36;10.27;;;4.93;;
72559;SDS011;62987;52.382;9.752;2023-02-15T12:14:06;11.93;;;6.22;;
72559;SDS011;62987;52.382;9.752;2023-02-15T12:16:40;11.85;;;5.10;;
72559;SDS011;62987;52.382;9.752;2023-02-15T12:21:58;10.95;;;5.07;;
72559;SDS011;62987;52.382;9.752;2023-02-15T12:24:30;12.45;;;5.25;;
72559;SDS011;62987;52.382;9.752;2023-02-15T12:27:04;9.32;;;5.25;;
72559;SDS011;62987;52.382;9.752;2023-02-15T12:29:35;12.93;;;6.35;;
72559;SDS011;62987;52.382;9.752;2023-02-15T12:32:09;12.05;;;5.45;;
72559;SDS011;62987;52.382;9.752;2023-02-15T12:34:44;12.77;;;5.18;;
72559;SDS011;62987;52.382;9.752;2023-02-15T12:37:15;11.70;;;5.80;;
72559;SDS011;62987;52.382;9.752;2023-02-15T12:39:51;11.25;;;5.32;;
72559;SDS011;62987;52.382;9.752;2023-02-15T12:42:22;9.40;;;4.88;;
72559;SDS011;62987;52.382;9.752;2023-02-15T12:44:58;11.63;;;5.15;;
72559;SDS011;62987;52.382;9.752;2023-02-15T12:47:28;12.25;;;6.15;;
72559;SDS011;62987;52.382;9.752;2023-02-15T12:50:05;11.07;;;4.90;;
72559;SDS011;62987;52.382;9.752;2023-02-15T12:52:44;10.07;;;5.25;;
72559;SDS011;62987;52.382;9.752;2023-02-15T12:55:21;14.02;;;5.65;;
72559;SDS011;62987;52.382;9.752;2023-02-15T13:00:36;10.77;;;5.35;;
72559;SDS011;62987;52.382;9.752;2023-02-15T13:03:04;10.82;;;5.97;;
72559;SDS011;62987;52.382;9.752;2023-02-15T13:05:33;13.60;;;6.57;;
72559;SDS011;62987;52.382;9.752;2023-02-15T13:08:08;10.35;;;6.18;;
72559;SDS011;62987;52.382;9.752;2023-02-15T13:10:40;10.85;;;5.45;;
72559;SDS011;62987;52.382;9.752;2023-02-15T13:13:16;11.45;;;5.03;;
72559;SDS011;62987;52.382;9.752;2023-02-15T13:15:48;11.43;;;6.03;;
72559;SDS011;62987;52.382;9.752;2023-02-15T13:18:19;12.40;;;5.68;;
72559;SDS011;62987;52.382;9.752;2023-02-15T13:20:56;11.13;;;5.47;;
72559;SDS011;62987;52.382;9.752;2023-02-15T13:23:26;14.55;;;6.60;;
72559;SDS011;62987;52.382;9.752;2023-02-15T13:25:56;12.02;;;6.10;;
72559;SDS011;62987;52.382;9.752;2023-02-15T13:28:29;12.80;;;6.80;;
72559;SDS011;62987;52.382;9.752;2023-02-15T13:31:08;14.10;;;6.57;;
72559;SDS011;62987;52.382;9.752;2023-02-15T13:33:42;12.65;;;5.93;;
72559;SDS011;62987;52.382;9.752;2023-02-15T13:36:14;14.95;;;6.93;;
72559;SDS011;62987;52.382;9.752;2023-02-15T13:38:50;13.02;;;5.85;;
72559;SDS011;62987;52.382;9.752;2023-02-15T13:41:30;10.73;;;5.53;;
72559;SDS011;62987;52.382;9.752;2023-02-15T13:44:09;13.85;;;5.68;;
72559;SDS011;62987;52.382;9.752;2023-02-15T13:46:50;14.93;;;6.78;;
72559;SDS011;62987;52.382;9.752;2023-02-15T13:49:30;12.48;;;6.15;;
72559;SDS011;62987;52.382;9.752;2023-02-15T13:52:08;12.60;;;6.18;;
72559;SDS011;62987;52.382;9.752;2023-02-15T13:54:49;15.00;;;6.43;;
72559;SDS011;62987;52.382;9.752;2023-02-15T13:57:32;15.55;;;5.40;;
72559;SDS011;62987;52.382;9.752;2023-02-15T14:00:15;14.02;;;6.60;;
72559;SDS011;62987;52.382;9.752;2023-02-15T14:02:55;12.57;;;5.90;;
72559;SDS011;62987;52.382;9.752;2023-02-15T14:05:49;11.77;;;5.18;;
72559;SDS011;62987;52.382;9.752;2023-02-15T14:08:28;13.52;;;6.75;;
72559;SDS011;62987;52.382;9.752;2023-02-15T14:11:06;15.25;;;7.10;;
72559;SDS011;62987;52.382;9.752;2023-02-15T14:16:48;11.88;;;6.18;;
72559;SDS011;62987;52.382;9.752;2023-02-15T14:19:34;11.95;;;5.70;;
72559;SDS011;62987;52.382;9.752;2023-02-15T14:22:06;13.60;;;6.13;;
72559;SDS011;62987;52.382;9.752;2023-02-15T14:24:42;15.68;;;7.20;;
72559;SDS011;62987;52.382;9.752;2023-02-15T14:27:18;12.63;;;5.97;;
72559;SDS011;62987;52.382;9.752;2023-02-15T14:29:53;12.50;;;5.95;;
72559;SDS011;62987;52.382;9.752;2023-02-15T14:32:27;12.32;;;6.00;;
72559;SDS011;62987;52.382;9.752;2023-02-15T14:35:00;10.20;;;5.85;;
72559;SDS011;62987;52.382;9.752;2023-02-15T14:37:34;15.05;;;6.60;;
72559;SDS011;62987;52.382;9.752;2023-02-15T14:40:11;12.50;;;5.75;;
72559;SDS011;62987;52.382;9.752;2023-02-15T14:43:05;15.25;;;7.20;;
72559;SDS011;62987;52.382;9.752;2023-02-15T14:45:40;12.63;;;5.70;;
72559;SDS011;62987;52.382;9.752;2023-02-15T14:48:25;12.45;;;5.75;;
72559;SDS011;62987;52.382;9.752;2023-02-15T14:50:58;11.98;;;4.93;;
72559;SDS011;62987;52.382;9.752;2023-02-15T14:53:32;12.80;;;5.57;;
72559;SDS011;62987;52.382;9.752;2023-02-15T14:56:06;13.77;;;6.25;;
72559;SDS011;62987;52.382;9.752;2023-02-15T15:01:55;12.35;;;6.53;;
72559;SDS011;62987;52.382;9.752;2023-02-15T15:04:27;12.55;;;6.00;;
72559;SDS011;62987;52.382;9.752;2023-02-15T15:07:02;12.30;;;5.30;;
72559;SDS011;62987;52.382;9.752;2023-02-15T15:09:35;13.00;;;6.40;;
72559;SDS011;62987;52.382;9.752;2023-02-15T15:12:18;10.70;;;5.65;;
72559;SDS011;62987;52.382;9.752;2023-02-15T15:15:10;13.70;;;5.78;;
72559;SDS011;62987;52.382;9.752;2023-02-15T15:17:56;13.93;;;6.82;;
72559;SDS011;62987;52.382;9.752;2023-02-15T15:20:44;10.27;;;4.65;;
72559;SDS011;62987;52.382;9.752;2023-02-15T15:23:33;14.18;;;7.03;;
72559;SDS011;62987;52.382;9.752;2023-02-15T15:26:24;12.68;;;5.32;;
72559;SDS011;62987;52.382;9.752;2023-02-15T15:29:00;12.80;;;5.97;;
72559;SDS011;62987;52.382;9.752;2023-02-15T15:37:34;14.07;;;6.07;;
72559;SDS011;62987;52.382;9.752;2023-02-15T15:40:32;13.63;;;5.60;;
72559;SDS011;62987;52.382;9.752;2023-02-15T15:49:02;11.10;;;5.70;;
72559;SDS011;62987;52.382;9.752;2023-02-15T15:51:34;12.63;;;5.97;;
72559;SDS011;62987;52.382;9.752;2023-02-15T15:54:12;10.70;;;5.13;;
72559;SDS011;62987;52.382;9.752;2023-02-15T15:56:44;15.40;;;6.45;;
72559;SDS011;62987;52.382;9.752;2023-02-15T15:59:17;11.48;;;5.07;;
72559;SDS011;62987;52.382;9.752;2023-02-15T16:01:47;16.30;;;5.75;;
72559;SDS011;62987;52.382;9.752;2023-02-15T16:04:22;10.75;;;5.53;;
72559;SDS011;62987;52.382;9.752;2023-02-15T16:06:52;11.85;;;5.15;;